createdAt,value
2019-03-11T00:01:47.794Z,60.47
2019-03-11T00:04:49.740Z,60.55
2019-03-11T00:07:51.627Z,61.60
2019-03-11T00:10:54.830Z,61.39
2019-03-11T00:13:56.878Z,61.56
2019-03-11T00:16:58.879Z,61.75
2019-03-11T00:20:00.798Z,62.19
2019-03-11T00:23:02.691Z,62.63
2019-03-11T00:26:04.553Z,62.71
2019-03-11T00:29:06.494Z,62.87
2019-03-11T00:32:08.502Z,63.09
2019-03-11T00:35:10.462Z,63.69
2019-03-11T00:38:12.335Z,63.64
2019-03-11T00:41:14.267Z,63.60
2019-03-11T00:44:16.189Z,64.04
2019-03-11T00:47:18.238Z,64.32
2019-03-11T00:50:20.174Z,64.69
2019-03-11T00:53:22.052Z,64.56
2019-03-11T00:56:23.965Z,64.43
2019-03-11T00:59:25.893Z,64.46
2019-03-11T01:02:27.873Z,64.64
2019-03-11T01:05:29.725Z,64.75
2019-03-11T01:08:31.617Z,64.50
2019-03-11T01:11:33.463Z,64.66
2019-03-11T01:14:36.005Z,64.46
2019-03-11T01:17:38.120Z,64.56
2019-03-11T01:20:40.047Z,64.80
2019-03-11T01:23:42.066Z,65.19
2019-03-11T01:26:44.356Z,65.07
2019-03-11T01:29:46.269Z,64.81
2019-03-11T01:32:48.304Z,65.02
2019-03-11T01:35:50.179Z,65.44
2019-03-11T01:38:52.094Z,65.79
2019-03-11T01:41:54.338Z,65.74
2019-03-11T01:44:56.166Z,65.68
2019-03-11T01:47:58.071Z,66.02
2019-03-11T01:50:59.927Z,66.14
2019-03-11T01:54:01.817Z,66.01
2019-03-11T01:57:04.681Z,66.20
2019-03-11T02:00:10.193Z,66.15
2019-03-11T02:03:12.144Z,66.42
2019-03-11T02:06:14.021Z,66.23
2019-03-11T02:09:15.963Z,66.27
2019-03-11T02:12:17.977Z,66.35
2019-03-11T02:15:19.943Z,66.36
2019-03-11T02:18:21.810Z,66.25
2019-03-11T02:21:23.776Z,66.00
2019-03-11T02:24:25.684Z,65.86
2019-03-11T02:27:27.942Z,65.69
2019-03-11T02:30:30.021Z,65.29
2019-03-11T02:33:31.992Z,65.41
2019-03-11T02:36:33.858Z,65.04
2019-03-11T02:39:35.779Z,65.16
2019-03-11T02:42:37.646Z,65.01
2019-03-11T02:45:39.578Z,65.13
2019-03-11T02:48:41.408Z,65.14
2019-03-11T02:51:43.281Z,65.16
2019-03-11T02:54:45.140Z,65.28
2019-03-11T02:57:47.058Z,65.35
2019-03-11T03:00:51.898Z,65.19
2019-03-11T03:03:58.786Z,65.09
2019-03-11T03:07:00.611Z,64.46
2019-03-11T03:10:04.805Z,64.13
2019-03-11T03:13:06.717Z,64.10
2019-03-11T03:16:08.673Z,64.40
2019-03-11T03:19:10.607Z,64.57
2019-03-11T03:22:12.464Z,65.10
2019-03-11T03:25:14.369Z,65.37
2019-03-11T03:28:16.319Z,65.77
2019-03-11T03:31:18.201Z,66.15
2019-03-11T03:34:20.630Z,66.43
2019-03-11T03:37:22.483Z,66.46
2019-03-11T03:40:24.765Z,66.53
2019-03-11T03:43:26.695Z,66.78
2019-03-11T03:46:28.646Z,66.78
2019-03-11T03:49:30.514Z,66.73
2019-03-11T03:52:32.994Z,66.52
2019-03-11T03:55:34.871Z,66.39
2019-03-11T03:58:36.864Z,66.34
2019-03-11T04:01:38.829Z,66.28
2019-03-11T04:04:40.815Z,66.22
2019-03-11T04:07:42.709Z,66.26
2019-03-11T04:10:44.692Z,66.22
2019-03-11T04:13:46.558Z,66.19
2019-03-11T04:16:48.524Z,66.05
2019-03-11T04:19:50.513Z,66.16
2019-03-11T04:22:52.505Z,66.03
2019-03-11T04:25:54.384Z,65.93
2019-03-11T04:28:56.432Z,65.58
2019-03-11T04:31:58.323Z,65.34
2019-03-11T04:35:00.483Z,65.43
2019-03-11T04:38:02.377Z,65.09
2019-03-11T04:41:06.222Z,64.38
2019-03-11T04:44:08.135Z,64.21
2019-03-11T04:47:10.030Z,64.29
2019-03-11T04:50:16.335Z,64.39
2019-03-11T04:53:18.277Z,64.38
2019-03-11T04:56:20.202Z,64.22
2019-03-11T04:59:22.099Z,64.36
2019-03-11T05:02:24.052Z,64.33
2019-03-11T05:05:26.053Z,64.47
2019-03-11T05:08:27.953Z,64.87
2019-03-11T05:11:29.878Z,65.16
2019-03-11T05:14:31.786Z,65.11
2019-03-11T05:17:33.759Z,65.01
2019-03-11T05:20:35.731Z,64.91
2019-03-11T05:23:37.706Z,65.11
2019-03-11T05:26:39.533Z,65.24
2019-03-11T05:29:42.625Z,65.13
2019-03-11T05:32:44.514Z,65.12
2019-03-11T05:35:46.504Z,65.21
2019-03-11T05:38:48.443Z,65.12
2019-03-11T05:41:50.353Z,65.31
2019-03-11T05:44:52.258Z,65.04
2019-03-11T05:47:54.125Z,64.83
2019-03-11T05:50:56.391Z,64.96
2019-03-11T05:53:58.292Z,64.88
2019-03-11T05:57:00.242Z,64.34
2019-03-11T06:00:04.231Z,64.48
2019-03-11T06:03:06.127Z,64.28
2019-03-11T06:06:08.092Z,64.46
2019-03-11T06:09:10.126Z,64.21
2019-03-11T06:12:11.978Z,64.16
2019-03-11T06:15:14.610Z,64.01
2019-03-11T06:18:18.436Z,63.88
2019-03-11T06:21:25.234Z,63.72
2019-03-11T06:24:27.138Z,63.40
2019-03-11T06:27:29.047Z,63.14
2019-03-11T06:30:31.244Z,62.28
2019-03-11T06:33:33.196Z,61.95
2019-03-11T06:36:37.062Z,62.46
2019-03-11T06:39:55.894Z,62.11
2019-03-11T06:42:58.086Z,61.07
2019-03-11T06:46:00.065Z,60.62
2019-03-11T06:49:02.029Z,60.78
2019-03-11T06:52:04.163Z,60.62
2019-03-11T06:55:08.085Z,60.51
2019-03-11T06:58:10.025Z,59.98
2019-03-11T07:01:11.958Z,59.37
2019-03-11T07:04:13.858Z,58.88
2019-03-11T07:07:15.698Z,58.77
2019-03-11T07:10:17.655Z,58.37
2019-03-11T07:13:19.721Z,58.08
2019-03-11T07:16:21.724Z,57.31
2019-03-11T07:19:23.713Z,55.23
2019-03-11T07:22:25.612Z,53.90
2019-03-11T07:25:27.526Z,54.11
2019-03-11T07:28:29.472Z,53.30
2019-03-11T07:31:31.406Z,53.27
2019-03-11T07:34:33.323Z,53.10
2019-03-11T07:37:35.307Z,51.90
2019-03-11T07:40:37.232Z,48.69
2019-03-11T07:43:39.303Z,47.27
2019-03-11T07:46:41.142Z,46.53
2019-03-11T07:49:43.111Z,44.81
2019-03-11T07:52:45.002Z,44.60
2019-03-11T07:55:47.966Z,42.95
2019-03-11T07:58:50.249Z,42.68
2019-03-11T08:01:52.426Z,41.62
2019-03-11T08:04:54.556Z,40.88
2019-03-11T08:07:57.818Z,41.54
2019-03-11T08:10:59.886Z,40.66
2019-03-11T08:14:01.966Z,39.43
2019-03-11T08:17:03.899Z,40.77
2019-03-11T08:20:09.071Z,38.61
2019-03-11T08:23:11.142Z,39.58
2019-03-11T08:26:13.094Z,40.55
2019-03-11T08:29:15.030Z,40.32
2019-03-11T08:32:17.022Z,41.32
2019-03-11T08:35:18.903Z,41.17
2019-03-11T08:38:20.836Z,41.92
2019-03-11T08:41:22.690Z,41.33
2019-03-11T08:44:24.859Z,42.56
2019-03-11T08:47:26.825Z,41.26
2019-03-11T08:50:28.743Z,42.54
2019-03-11T08:53:30.691Z,42.16
2019-03-11T08:56:32.641Z,41.71
2019-03-11T08:59:34.633Z,42.81
2019-03-11T09:02:36.534Z,42.37
2019-03-11T09:05:38.462Z,42.63
2019-03-11T09:08:40.363Z,42.05
2019-03-11T09:11:42.329Z,41.19
2019-03-11T09:14:44.588Z,42.61
2019-03-11T09:17:47.148Z,41.20
2019-03-11T09:20:49.058Z,41.10
2019-03-11T09:23:51.057Z,41.76
2019-03-11T09:26:52.982Z,40.82
2019-03-11T09:29:54.974Z,41.19
2019-03-11T09:32:57.017Z,40.70
2019-03-11T09:35:58.916Z,41.25
2019-03-11T09:39:00.860Z,40.89
2019-03-11T09:42:02.769Z,40.65
2019-03-11T09:45:08.874Z,40.62
2019-03-11T09:48:10.746Z,40.31
2019-03-11T09:51:14.086Z,41.10
2019-03-11T09:54:16.116Z,41.85
2019-03-11T09:57:18.025Z,40.76
2019-03-11T10:00:22.914Z,41.01
2019-03-11T10:03:24.833Z,39.95
2019-03-11T10:06:26.804Z,39.51
2019-03-11T10:09:28.748Z,39.31
2019-03-11T10:12:30.654Z,39.81
2019-03-11T10:15:33.242Z,39.78
2019-03-11T10:18:35.269Z,39.04
2019-03-11T10:21:37.271Z,39.28
2019-03-11T10:24:39.343Z,39.64
2019-03-11T10:27:41.288Z,38.42
2019-03-11T10:30:43.166Z,38.26
2019-03-11T10:33:45.101Z,37.11
2019-03-11T10:36:47.224Z,38.18
2019-03-11T10:39:49.188Z,38.77
2019-03-11T10:42:51.156Z,39.04
2019-03-11T10:45:53.248Z,39.24
2019-03-11T10:48:55.151Z,40.01
2019-03-11T10:51:57.070Z,38.80
2019-03-11T10:54:59.911Z,38.03
2019-03-11T10:58:01.942Z,37.32
2019-03-11T11:01:04.035Z,37.92
2019-03-11T11:04:05.959Z,37.39
2019-03-11T11:07:08.469Z,37.94
2019-03-11T11:10:14.952Z,37.39
2019-03-11T11:13:16.888Z,37.13
2019-03-11T11:16:18.853Z,37.58
2019-03-11T11:19:20.750Z,37.63
2019-03-11T11:22:22.664Z,38.14
2019-03-11T11:25:27.078Z,39.09
2019-03-11T11:28:29.042Z,40.14
2019-03-11T11:31:30.948Z,40.13
2019-03-11T11:34:32.870Z,40.50
2019-03-11T11:37:34.791Z,40.04
2019-03-11T11:40:36.747Z,40.18
2019-03-11T11:43:38.670Z,39.84
2019-03-11T11:46:40.755Z,39.70
2019-03-11T11:49:42.658Z,38.55
2019-03-11T11:52:44.788Z,38.06
2019-03-11T11:55:57.063Z,38.07
2019-03-11T11:58:50.641Z,38.05
2019-03-11T12:02:03.366Z,37.60
2019-03-11T12:04:58.732Z,36.92
2019-03-11T12:08:00.572Z,36.62
2019-03-11T12:11:02.525Z,37.28
2019-03-11T12:14:04.531Z,36.93
2019-03-11T12:17:07.431Z,37.04
2019-03-11T12:20:12.670Z,38.54
2019-03-11T12:23:14.653Z,42.83
2019-03-11T12:26:16.511Z,44.00
2019-03-11T12:29:18.463Z,44.39
2019-03-11T12:32:20.480Z,44.30
2019-03-11T12:35:22.753Z,45.47
2019-03-11T12:38:24.653Z,46.68
2019-03-11T12:41:26.502Z,48.78
2019-03-11T12:44:29.685Z,50.08
2019-03-11T12:47:31.872Z,50.67
2019-03-11T12:50:34.484Z,51.25
2019-03-11T12:53:36.383Z,51.84
2019-03-11T12:56:38.318Z,52.61
2019-03-11T12:59:40.897Z,52.74
2019-03-11T13:02:43.146Z,53.20
2019-03-11T13:05:45.059Z,53.50
2019-03-11T13:08:47.009Z,54.28
2019-03-11T13:11:48.959Z,52.66
2019-03-11T13:14:50.864Z,51.36
2019-03-11T13:17:52.851Z,50.83
2019-03-11T13:20:54.746Z,50.60
2019-03-11T13:23:56.719Z,50.60
2019-03-11T13:26:58.673Z,50.45
2019-03-11T13:30:00.568Z,50.34
2019-03-11T13:33:02.487Z,50.78
2019-03-11T13:36:06.158Z,50.90
2019-03-11T13:39:09.114Z,50.05
2019-03-11T13:42:10.992Z,49.48
2019-03-11T13:45:16.534Z,49.09
2019-03-11T13:48:18.659Z,48.03
2019-03-11T13:51:20.583Z,47.12
2019-03-11T13:54:22.515Z,47.96
2019-03-11T13:57:24.607Z,47.45
2019-03-11T14:00:26.488Z,46.09
2019-03-11T14:03:28.424Z,46.65
2019-03-11T14:06:30.331Z,47.02
2019-03-11T14:09:32.300Z,47.68
2019-03-11T14:12:34.319Z,47.63
2019-03-11T14:15:37.344Z,48.30
2019-03-11T14:18:39.443Z,48.49
2019-03-11T14:21:41.400Z,48.85
2019-03-11T14:24:43.249Z,49.36
2019-03-11T14:27:45.210Z,49.61
2019-03-11T14:30:47.202Z,50.27
2019-03-11T14:33:49.754Z,48.62
2019-03-11T14:36:51.797Z,48.33
2019-03-11T14:39:53.828Z,48.84
2019-03-11T14:42:55.706Z,49.72
2019-03-11T14:45:57.686Z,49.57
2019-03-11T14:48:59.659Z,48.95
2019-03-11T14:52:01.592Z,49.02
2019-03-11T14:55:05.507Z,48.53
2019-03-11T14:58:07.699Z,49.07
2019-03-11T15:01:09.565Z,48.47
2019-03-11T15:04:11.616Z,49.55
2019-03-11T15:07:13.518Z,49.15
2019-03-11T15:10:17.047Z,48.35
2019-03-11T15:13:19.019Z,50.77
2019-03-11T15:16:21.025Z,50.21
2019-03-11T15:19:23.514Z,49.65
2019-03-11T15:22:25.513Z,49.41
2019-03-11T15:25:27.782Z,50.24
2019-03-11T15:28:29.897Z,49.58
2019-03-11T15:31:31.946Z,49.59
2019-03-11T15:34:33.908Z,50.29
2019-03-11T15:37:35.771Z,50.40
2019-03-11T15:40:37.814Z,50.75
2019-03-11T15:43:39.730Z,50.89
2019-03-11T15:46:41.833Z,51.75
2019-03-11T15:49:43.961Z,52.14
2019-03-11T15:52:45.978Z,52.79
2019-03-11T15:55:47.971Z,52.64
2019-03-11T15:58:49.824Z,53.32
2019-03-11T16:01:51.757Z,52.72
2019-03-11T16:04:54.939Z,52.63
2019-03-11T16:07:56.816Z,52.84
2019-03-11T16:10:58.792Z,52.54
2019-03-11T16:14:00.681Z,52.88
2019-03-11T16:17:03.354Z,53.57
2019-03-11T16:20:08.864Z,53.32
2019-03-11T16:23:10.830Z,53.56
2019-03-11T16:26:12.744Z,53.17
2019-03-11T16:29:14.654Z,53.91
2019-03-11T16:32:16.532Z,53.88
2019-03-11T16:35:19.354Z,54.27
2019-03-11T16:38:21.270Z,54.86
2019-03-11T16:41:23.197Z,55.20
2019-03-11T16:44:25.131Z,55.96
2019-03-11T16:47:28.024Z,56.35
2019-03-11T16:50:30.149Z,56.52
2019-03-11T16:53:32.084Z,56.94
2019-03-11T16:56:34.083Z,57.04
2019-03-11T16:59:38.910Z,57.05
2019-03-11T17:02:40.975Z,56.89
2019-03-11T17:05:42.976Z,56.94
2019-03-11T17:08:44.926Z,56.95
2019-03-11T17:11:46.812Z,57.06
2019-03-11T17:14:48.715Z,57.07
2019-03-11T17:17:50.611Z,56.77
2019-03-11T17:20:53.023Z,57.22
2019-03-11T17:23:54.928Z,57.26
2019-03-11T17:26:56.880Z,57.36
2019-03-11T17:29:59.478Z,57.64
2019-03-11T17:33:03.126Z,58.04
2019-03-11T17:36:05.288Z,58.39
2019-03-11T17:39:09.932Z,58.95
2019-03-11T17:42:13.797Z,59.19
2019-03-11T17:45:18.957Z,59.66
2019-03-11T17:48:20.928Z,60.01
2019-03-11T17:51:23.169Z,60.25
2019-03-11T17:54:27.516Z,60.72
2019-03-11T17:57:29.615Z,60.42
2019-03-11T18:00:35.112Z,60.51
2019-03-11T18:03:36.985Z,60.00
2019-03-11T18:06:38.905Z,59.75
2019-03-11T18:09:41.309Z,60.02
2019-03-11T18:12:43.201Z,60.25
2019-03-11T18:15:46.613Z,60.05
2019-03-11T18:18:48.875Z,60.02
2019-03-11T18:21:50.839Z,60.24
2019-03-11T18:24:53.573Z,60.30
2019-03-11T18:27:57.120Z,60.49
2019-03-11T18:30:59.793Z,60.16
2019-03-11T18:34:04.011Z,60.51
2019-03-11T18:37:06.268Z,60.53
2019-03-11T18:40:10.861Z,60.54
2019-03-11T18:43:20.578Z,60.81
2019-03-11T18:46:17.845Z,61.00
2019-03-11T18:49:20.067Z,62.04
2019-03-11T18:52:25.868Z,62.69
2019-03-11T18:55:27.800Z,63.31
2019-03-11T18:58:30.642Z,63.78
2019-03-11T19:01:35.071Z,64.06
2019-03-11T19:04:38.413Z,64.75
2019-03-11T19:07:40.832Z,65.61
2019-03-11T19:10:43.510Z,66.14
2019-03-11T19:13:45.917Z,66.78
2019-03-11T19:16:47.949Z,66.73
2019-03-11T19:19:49.910Z,66.91
2019-03-11T19:22:52.154Z,66.85
2019-03-11T19:25:55.229Z,67.12
2019-03-11T19:28:58.517Z,67.13
2019-03-11T19:32:00.551Z,67.70
2019-03-11T19:35:04.492Z,67.55
2019-03-11T19:38:08.278Z,67.28
2019-03-11T19:41:12.972Z,67.35
2019-03-11T19:44:15.431Z,67.26
2019-03-11T19:47:17.353Z,67.09
2019-03-11T19:50:20.745Z,67.33
2019-03-11T19:53:22.941Z,67.06
2019-03-11T19:56:25.157Z,67.11
2019-03-11T19:59:29.676Z,67.11
2019-03-11T20:02:31.790Z,66.91
2019-03-11T20:05:35.536Z,66.79
2019-03-11T20:08:40.422Z,66.80
2019-03-11T20:11:44.207Z,67.22
2019-03-11T20:14:47.662Z,67.27
2019-03-11T20:17:51.494Z,67.04
2019-03-11T20:20:53.528Z,66.90
2019-03-11T20:23:57.850Z,67.02
2019-03-11T20:26:59.942Z,66.94
2019-03-11T20:30:12.541Z,66.86
2019-03-11T20:33:14.671Z,66.70
2019-03-11T20:36:21.201Z,66.50
2019-03-11T20:39:20.519Z,66.46
2019-03-11T20:42:26.174Z,66.44
2019-03-11T20:45:29.548Z,66.32
2019-03-11T20:48:31.643Z,66.38
2019-03-11T20:51:35.154Z,66.50
2019-03-11T20:54:37.357Z,66.24
2019-03-11T20:57:39.960Z,65.80
2019-03-11T21:00:42.757Z,64.28
2019-03-11T21:03:46.684Z,64.45
2019-03-11T21:06:48.688Z,64.62
2019-03-11T21:09:50.624Z,64.64
2019-03-11T21:12:52.591Z,64.11
2019-03-11T21:15:54.609Z,64.24
2019-03-11T21:18:56.625Z,64.33
2019-03-11T21:21:58.617Z,64.72
2019-03-11T21:25:00.668Z,64.99
2019-03-11T21:28:02.865Z,65.28
2019-03-11T21:31:06.429Z,65.73
2019-03-11T21:34:12.401Z,65.84
2019-03-11T21:37:17.631Z,66.25
2019-03-11T21:40:23.141Z,66.60
2019-03-11T21:43:25.073Z,67.04
2019-03-11T21:46:27.122Z,67.50
2019-03-11T21:49:29.141Z,67.60
2019-03-11T21:52:31.123Z,67.59
2019-03-11T21:55:33.239Z,67.33
2019-03-11T21:58:35.587Z,67.20
2019-03-11T22:01:37.409Z,67.13
2019-03-11T22:04:39.358Z,67.23
2019-03-11T22:07:41.284Z,67.64
2019-03-11T22:10:43.257Z,67.47
2019-03-11T22:13:45.834Z,67.69
2019-03-11T22:16:47.721Z,67.72
2019-03-11T22:19:49.687Z,67.50
2019-03-11T22:22:51.525Z,67.44
2019-03-11T22:25:53.526Z,67.38
2019-03-11T22:28:55.474Z,67.11
2019-03-11T22:31:57.352Z,66.89
2019-03-11T22:35:11.684Z,66.71
2019-03-11T22:38:03.189Z,66.87
2019-03-11T22:41:05.134Z,66.84
2019-03-11T22:44:07.697Z,66.78
2019-03-11T22:47:09.587Z,66.90
2019-03-11T22:50:11.577Z,66.87
2019-03-11T22:53:13.507Z,67.20
2019-03-11T22:56:15.551Z,67.04
2019-03-11T22:59:17.534Z,67.00
2019-03-11T23:02:19.650Z,66.81
2019-03-11T23:05:21.616Z,66.73
2019-03-11T23:08:23.700Z,66.83
2019-03-11T23:11:25.650Z,66.74
2019-03-11T23:14:27.633Z,66.60
2019-03-11T23:17:29.499Z,66.77
2019-03-11T23:20:31.371Z,66.51
2019-03-11T23:23:33.343Z,66.66
2019-03-11T23:26:35.319Z,66.73
2019-03-11T23:29:37.263Z,66.90
2019-03-11T23:32:39.173Z,67.32
2019-03-11T23:35:41.063Z,67.48
2019-03-11T23:38:42.974Z,67.43
2019-03-11T23:41:44.914Z,67.43
2019-03-11T23:44:46.800Z,67.32
2019-03-11T23:47:48.707Z,67.25
2019-03-11T23:50:50.665Z,67.14
2019-03-11T23:53:52.581Z,67.00
2019-03-11T23:56:54.672Z,67.01
2019-03-11T23:59:56.661Z,66.88
